Time;durP1;ratioP1;P1;durP2;ratioP2;P2;SDS_P1;SDS_P2;PMS_P1;PMS_P2;Temp;Humidity;BMP_temperature;BMP_pressure;BME280_temperature;BME280_humidity;BME280_pressure;Samples;Min_cycle;Max_cycle;Signal;HPM_P1;HPM_P2
2023/01/29 00:02:10;;;;;;;112.77;26.23;;;;;;;;;;5095053;28;20086;-74
2023/01/29 00:04:36;;;;;;;104.13;23.90;;;;;;;;;;5060458;28;20126;-74
2023/01/29 00:07:01;;;;;;;101.00;25.10;;;;;;;;;;5095085;28;20046;-74
2023/01/29 00:09:27;;;;;;;95.03;24.10;;;;;;;;;;5077793;28;20062;-75
2023/01/29 00:11:53;;;;;;;94.37;25.10;;;;;;;;;;5061086;28;20385;-76
2023/01/29 00:14:18;;;;;;;97.07;23.60;;;;;;;;;;5094286;28;20078;-74
2023/01/29 00:16:44;;;;;;;84.03;23.37;;;;;;;;;;5061298;28;20100;-75
2023/01/29 00:19:10;;;;;;;76.00;21.57;;;;;;;;;;5095420;28;20031;-74
2023/01/29 00:21:36;;;;;;;77.63;22.07;;;;;;;;;;5062272;28;20042;-74
2023/01/29 00:24:01;;;;;;;76.87;21.57;;;;;;;;;;5095823;28;20035;-74
2023/01/29 00:26:27;;;;;;;82.23;21.63;;;;;;;;;;5062020;28;20028;-74
2023/01/29 00:28:53;;;;;;;70.73;20.90;;;;;;;;;;5095367;28;20043;-75
2023/01/29 00:31:20;;;;;;;72.37;23.00;;;;;;;;;;5078847;28;20116;-74
2023/01/29 00:33:46;;;;;;;74.37;23.00;;;;;;;;;;5095278;28;20031;-75
2023/01/29 00:36:13;;;;;;;63.40;19.47;;;;;;;;;;5078292;28;20453;-75
2023/01/29 00:38:38;;;;;;;64.10;20.27;;;;;;;;;;5095140;28;20035;-75
2023/01/29 00:46:37;;;;;;;66.27;21.13;;;;;;;;;;5078229;28;20027;-75
2023/01/29 00:49:03;;;;;;;70.93;22.43;;;;;;;;;;5094842;28;20042;-74
2023/01/29 00:51:29;;;;;;;69.33;21.03;;;;;;;;;;5078450;28;20530;-73
2023/01/29 00:53:57;;;;;;;59.50;20.23;;;;;;;;;;5077913;28;20071;-73
2023/01/29 00:56:23;;;;;;;62.97;20.43;;;;;;;;;;5061501;28;20043;-75
2023/01/29 00:58:49;;;;;;;65.20;20.60;;;;;;;;;;5078261;28;20031;-74
2023/01/29 01:01:15;;;;;;;61.43;20.83;;;;;;;;;;5061168;28;20183;-74
2023/01/29 01:03:41;;;;;;;54.27;19.27;;;;;;;;;;5094720;28;20040;-74
2023/01/29 01:06:09;;;;;;;61.37;19.87;;;;;;;;;;5061257;28;20038;-75
2023/01/29 01:11:20;;;;;;;53.23;18.63;;;;;;;;;;5077884;28;20112;-74
2023/01/29 01:13:50;;;;;;;51.57;18.60;;;;;;;;;;5095370;28;20048;-75
2023/01/29 01:16:19;;;;;;;54.07;18.57;;;;;;;;;;5060599;28;20578;-75
2023/01/29 01:18:45;;;;;;;48.57;18.33;;;;;;;;;;5094520;28;20043;-75
2023/01/29 01:21:11;;;;;;;58.63;20.13;;;;;;;;;;5077501;28;20039;-75
2023/01/29 01:23:37;;;;;;;55.47;19.53;;;;;;;;;;5094260;28;20115;-74
2023/01/29 01:26:07;;;;;;;57.93;19.47;;;;;;;;;;5060850;28;20027;-74
2023/01/29 01:28:33;;;;;;;54.43;20.20;;;;;;;;;;5094124;28;20043;-75
2023/01/29 01:31:06;;;;;;;57.30;20.80;;;;;;;;;;5060930;28;20092;-75
2023/01/29 01:33:32;;;;;;;63.83;20.37;;;;;;;;;;5094254;28;20031;-74
2023/01/29 01:36:01;;;;;;;52.10;18.63;;;;;;;;;;5061216;28;20126;-74
2023/01/29 01:38:26;;;;;;;55.27;20.37;;;;;;;;;;5077071;28;20035;-75
2023/01/29 01:40:55;;;;;;;56.23;19.83;;;;;;;;;;5093892;28;20358;-74
2023/01/29 01:43:24;;;;;;;54.53;19.53;;;;;;;;;;5060885;28;20041;-74
2023/01/29 01:45:50;;;;;;;49.53;19.03;;;;;;;;;;5094293;28;20116;-73
2023/01/29 01:48:18;;;;;;;43.50;16.73;;;;;;;;;;5110595;28;20437;-73
2023/01/29 01:50:45;;;;;;;43.47;16.43;;;;;;;;;;5093994;28;20031;-74
2023/01/29 01:53:14;;;;;;;39.23;15.23;;;;;;;;;;5077002;28;20484;-76
2023/01/29 01:55:45;;;;;;;36.60;13.90;;;;;;;;;;5093990;28;20040;-73
2023/01/29 01:58:15;;;;;;;36.30;13.83;;;;;;;;;;5093845;28;20040;-74
2023/01/29 02:00:41;;;;;;;30.87;12.70;;;;;;;;;;5076946;28;20055;-74
2023/01/29 02:11:24;;;;;;;32.50;11.50;;;;;;;;;;5076842;28;20051;-72
2023/01/29 02:13:52;;;;;;;27.90;11.73;;;;;;;;;;5076148;28;20819;-72
2023/01/29 02:16:25;;;;;;;28.77;11.27;;;;;;;;;;5093999;28;20078;-74
2023/01/29 02:18:50;;;;;;;26.17;10.57;;;;;;;;;;5077234;28;20453;-73
2023/01/29 02:21:28;;;;;;;28.00;10.17;;;;;;;;;;5076636;28;20035;-74
2023/01/29 02:24:12;;;;;;;24.27;9.80;;;;;;;;;;5111636;28;20031;-74
2023/01/29 02:26:41;;;;;;;20.83;9.90;;;;;;;;;;5077606;28;20130;-73
2023/01/29 02:29:21;;;;;;;27.37;10.60;;;;;;;;;;5080710;28;20085;-73
2023/01/29 02:32:07;;;;;;;21.60;9.93;;;;;;;;;;5080837;28;20039;-75
2023/01/29 02:37:19;;;;;;;22.47;10.07;;;;;;;;;;5097763;28;20047;-75
2023/01/29 02:39:54;;;;;;;23.70;10.37;;;;;;;;;;5080453;28;20035;-76
2023/01/29 02:42:26;;;;;;;18.97;9.97;;;;;;;;;;5081158;28;20046;-75
2023/01/29 02:44:57;;;;;;;22.33;10.50;;;;;;;;;;5089857;27;20481;-76
2023/01/29 02:47:31;;;;;;;22.13;9.90;;;;;;;;;;5098228;27;20031;-76
2023/01/29 02:50:20;;;;;;;17.70;9.37;;;;;;;;;;5098532;27;20366;-75
2023/01/29 02:52:55;;;;;;;16.27;8.33;;;;;;;;;;5114990;27;20576;-75
2023/01/29 02:55:40;;;;;;;12.97;7.23;;;;;;;;;;5081345;27;20035;-76
2023/01/29 02:58:10;;;;;;;10.63;5.17;;;;;;;;;;5080594;27;20055;-76
2023/01/29 03:00:40;;;;;;;9.00;5.10;;;;;;;;;;5115329;27;20167;-76
2023/01/29 03:03:10;;;;;;;8.05;4.72;;;;;;;;;;5115049;27;20034;-76
2023/01/29 03:05:43;;;;;;;6.50;4.30;;;;;;;;;;5114580;27;20035;-76
2023/01/29 03:08:11;;;;;;;9.13;5.20;;;;;;;;;;5114475;27;20038;-76
2023/01/29 03:10:36;;;;;;;7.30;4.43;;;;;;;;;;5080418;27;20366;-77
2023/01/29 03:13:07;;;;;;;9.70;4.93;;;;;;;;;;5114502;27;20088;-76
2023/01/29 03:15:41;;;;;;;8.25;4.85;;;;;;;;;;5080747;27;20031;-76
2023/01/29 03:18:26;;;;;;;8.13;5.03;;;;;;;;;;5099340;27;20039;-75
2023/01/29 03:20:57;;;;;;;12.60;5.80;;;;;;;;;;5099822;27;20038;-74
2023/01/29 03:34:37;;;;;;;6.77;3.70;;;;;;;;;;5133667;27;20041;-75
2023/01/29 03:37:09;;;;;;;8.17;3.80;;;;;;;;;;5099565;27;20027;-75
2023/01/29 03:39:36;;;;;;;7.70;3.60;;;;;;;;;;5098816;27;20142;-76
2023/01/29 03:42:03;;;;;;;6.07;3.80;;;;;;;;;;5097135;27;20498;-75
2023/01/29 03:44:59;;;;;;;7.10;3.60;;;;;;;;;;5099421;27;20074;-75
2023/01/29 03:47:45;;;;;;;6.30;3.80;;;;;;;;;;5081319;27;20134;-75
2023/01/29 03:50:12;;;;;;;9.33;3.57;;;;;;;;;;5099323;27;20796;-76
2023/01/29 03:52:48;;;;;;;6.10;3.53;;;;;;;;;;5099287;27;20091;-76
2023/01/29 03:55:32;;;;;;;5.70;3.67;;;;;;;;;;5116177;27;20126;-76
2023/01/29 03:58:05;;;;;;;6.40;4.40;;;;;;;;;;5096896;28;20122;-76
2023/01/29 04:00:34;;;;;;;7.80;4.57;;;;;;;;;;5100032;27;20038;-75
2023/01/29 04:03:20;;;;;;;9.07;4.93;;;;;;;;;;5116451;27;20464;-74
2023/01/29 04:05:50;;;;;;;6.97;4.13;;;;;;;;;;5099914;27;20069;-74
2023/01/29 04:08:27;;;;;;;7.73;3.60;;;;;;;;;;5117234;27;20083;-77
2023/01/29 04:10:59;;;;;;;5.80;3.50;;;;;;;;;;5098829;27;20055;-74
2023/01/29 04:13:26;;;;;;;11.83;4.03;;;;;;;;;;5082956;27;20047;-76
2023/01/29 04:15:58;;;;;;;6.03;3.70;;;;;;;;;;5116778;27;20036;-72
2023/01/29 04:18:54;;;;;;;7.80;3.90;;;;;;;;;;5116752;27;20045;-72
2023/01/29 04:21:39;;;;;;;5.27;3.77;;;;;;;;;;5098909;27;20135;-72
2023/01/29 04:24:06;;;;;;;4.80;3.13;;;;;;;;;;5116467;27;20035;-72
2023/01/29 04:27:02;;;;;;;6.73;3.40;;;;;;;;;;5082743;27;20130;-71
2023/01/29 04:29:49;;;;;;;5.53;3.60;;;;;;;;;;5116505;27;20054;-72
2023/01/29 04:32:21;;;;;;;8.57;3.63;;;;;;;;;;5131295;27;20035;-72
2023/01/29 04:35:20;;;;;;;5.65;3.50;;;;;;;;;;5131856;27;20199;-76
2023/01/29 04:38:15;;;;;;;8.60;3.70;;;;;;;;;;5114706;27;20130;-73
2023/01/29 04:40:49;;;;;;;6.10;3.50;;;;;;;;;;5133529;27;20120;-73
2023/01/29 04:43:47;;;;;;;6.17;3.43;;;;;;;;;;5099218;27;20042;-73
2023/01/29 04:46:24;;;;;;;6.27;4.17;;;;;;;;;;5061967;27;20087;-71
2023/01/29 04:49:04;;;;;;;10.20;4.30;;;;;;;;;;5099200;27;20067;-72
2023/01/29 04:51:50;;;;;;;7.83;4.20;;;;;;;;;;5098954;27;20031;-66
2023/01/29 04:54:18;;;;;;;6.83;4.30;;;;;;;;;;5088092;27;20416;-67
2023/01/29 04:56:52;;;;;;;7.27;4.63;;;;;;;;;;5095112;28;20036;-67
2023/01/29 04:59:20;;;;;;;9.43;4.47;;;;;;;;;;5095534;28;20130;-67
2023/01/29 05:01:46;;;;;;;9.07;4.70;;;;;;;;;;5112644;28;20043;-67
2023/01/29 05:04:13;;;;;;;7.17;4.60;;;;;;;;;;5078583;28;20027;-68
2023/01/29 05:06:39;;;;;;;6.87;4.03;;;;;;;;;;5094951;28;20450;-67
2023/01/29 05:09:06;;;;;;;6.87;4.27;;;;;;;;;;5095286;28;20061;-68
2023/01/29 05:11:32;;;;;;;8.07;4.50;;;;;;;;;;5094842;28;20053;-68
2023/01/29 05:13:58;;;;;;;6.80;4.77;;;;;;;;;;5078154;28;20032;-68
2023/01/29 05:16:26;;;;;;;9.50;5.07;;;;;;;;;;5094684;28;20040;-67
2023/01/29 05:18:52;;;;;;;9.30;5.10;;;;;;;;;;5095402;28;20433;-68
2023/01/29 05:21:18;;;;;;;10.20;5.13;;;;;;;;;;5094316;28;20056;-68
2023/01/29 05:23:56;;;;;;;9.77;5.27;;;;;;;;;;5077777;28;20080;-69
2023/01/29 05:29:05;;;;;;;10.03;5.40;;;;;;;;;;5076837;28;20047;-67
2023/01/29 05:31:31;;;;;;;9.13;5.37;;;;;;;;;;5095695;28;20551;-67
2023/01/29 05:33:57;;;;;;;11.63;5.13;;;;;;;;;;5112604;28;20044;-67
2023/01/29 05:36:24;;;;;;;8.67;5.30;;;;;;;;;;5095598;28;20481;-66
2023/01/29 05:38:50;;;;;;;11.00;6.00;;;;;;;;;;5078737;28;20378;-66
2023/01/29 05:41:16;;;;;;;11.77;5.77;;;;;;;;;;5112832;28;20126;-67
2023/01/29 05:43:42;;;;;;;9.13;5.47;;;;;;;;;;5061816;28;20039;-66
2023/01/29 05:46:07;;;;;;;13.73;6.63;;;;;;;;;;5094994;28;20046;-66
2023/01/29 05:48:33;;;;;;;11.10;5.70;;;;;;;;;;5077778;28;20067;-67
2023/01/29 05:51:03;;;;;;;8.13;5.20;;;;;;;;;;5097375;27;20038;-66
2023/01/29 05:53:29;;;;;;;10.10;5.13;;;;;;;;;;5113433;27;20031;-67
2023/01/29 05:55:56;;;;;;;8.93;4.97;;;;;;;;;;5096281;28;20359;-67
2023/01/29 05:58:21;;;;;;;8.30;4.97;;;;;;;;;;5091370;28;20031;-67
2023/01/29 06:00:48;;;;;;;7.77;4.83;;;;;;;;;;5093203;27;20057;-67
2023/01/29 06:03:14;;;;;;;9.53;5.00;;;;;;;;;;5080894;27;20064;-68
2023/01/29 06:05:40;;;;;;;9.33;5.13;;;;;;;;;;5114069;28;20042;-66
2023/01/29 06:08:06;;;;;;;7.40;4.63;;;;;;;;;;5097447;28;20031;-68
2023/01/29 06:10:31;;;;;;;9.60;5.00;;;;;;;;;;5080774;28;20062;-68
2023/01/29 06:12:59;;;;;;;10.20;5.30;;;;;;;;;;5081152;27;20035;-67
2023/01/29 06:15:25;;;;;;;7.57;4.90;;;;;;;;;;5080288;28;20460;-67
2023/01/29 06:17:55;;;;;;;8.40;4.77;;;;;;;;;;5080737;28;20144;-68
2023/01/29 06:20:21;;;;;;;9.70;4.40;;;;;;;;;;5097817;28;20043;-67
2023/01/29 06:22:46;;;;;;;8.83;4.87;;;;;;;;;;5080714;28;20483;-68
2023/01/29 06:25:12;;;;;;;11.07;5.23;;;;;;;;;;5076949;28;20491;-68
2023/01/29 06:27:38;;;;;;;8.63;4.97;;;;;;;;;;5092812;28;20027;-68
2023/01/29 06:30:04;;;;;;;9.23;5.03;;;;;;;;;;5094790;28;20104;-69
2023/01/29 06:32:30;;;;;;;10.20;5.00;;;;;;;;;;5093496;28;20038;-67
2023/01/29 06:34:56;;;;;;;10.30;5.00;;;;;;;;;;5094515;28;20028;-67
2023/01/29 06:37:22;;;;;;;10.77;5.63;;;;;;;;;;5087405;28;20358;-67
2023/01/29 06:39:47;;;;;;;11.60;6.77;;;;;;;;;;5111485;28;20047;-67
2023/01/29 06:42:13;;;;;;;10.90;6.13;;;;;;;;;;5095357;28;20027;-66
2023/01/29 06:44:39;;;;;;;7.67;4.93;;;;;;;;;;5078602;28;20038;-66
2023/01/29 06:47:05;;;;;;;8.90;4.73;;;;;;;;;;5088043;28;20087;-68
2023/01/29 06:49:31;;;;;;;9.03;4.80;;;;;;;;;;5078754;28;20039;-67
2023/01/29 06:51:57;;;;;;;10.83;5.20;;;;;;;;;;5096510;28;20185;-69
2023/01/29 06:54:23;;;;;;;10.73;5.93;;;;;;;;;;5080289;28;20092;-67
2023/01/29 06:56:48;;;;;;;11.13;5.00;;;;;;;;;;5076961;28;20585;-66
2023/01/29 06:59:16;;;;;;;8.93;5.37;;;;;;;;;;5097482;28;20149;-67
2023/01/29 07:01:43;;;;;;;8.67;5.23;;;;;;;;;;5079120;28;20513;-68
2023/01/29 07:04:09;;;;;;;8.03;4.80;;;;;;;;;;5094105;28;20031;-68
2023/01/29 07:06:35;;;;;;;17.97;5.03;;;;;;;;;;5095941;28;20406;-67
2023/01/29 07:09:01;;;;;;;7.77;4.33;;;;;;;;;;5113026;28;20031;-70
2023/01/29 07:11:27;;;;;;;7.00;4.20;;;;;;;;;;5129741;27;20138;-69
2023/01/29 07:13:53;;;;;;;9.30;4.27;;;;;;;;;;5080009;27;20121;-68
2023/01/29 07:16:18;;;;;;;8.37;4.40;;;;;;;;;;5081830;27;20031;-68
2023/01/29 07:18:47;;;;;;;7.00;4.40;;;;;;;;;;5098296;27;20041;-68
2023/01/29 07:21:13;;;;;;;6.63;4.37;;;;;;;;;;5099658;27;20027;-70
2023/01/29 07:23:40;;;;;;;7.60;4.40;;;;;;;;;;5114183;27;20465;-67
2023/01/29 07:26:06;;;;;;;7.60;4.57;;;;;;;;;;5099695;27;20062;-67
2023/01/29 07:28:36;;;;;;;8.03;4.27;;;;;;;;;;5115688;27;20043;-68
2023/01/29 07:31:02;;;;;;;7.72;4.55;;;;;;;;;;5097233;27;20038;-67
2023/01/29 07:33:29;;;;;;;7.93;4.30;;;;;;;;;;5100513;27;20046;-68
2023/01/29 07:35:55;;;;;;;10.87;5.33;;;;;;;;;;5101615;27;20043;-67
2023/01/29 07:38:21;;;;;;;11.67;5.50;;;;;;;;;;5097766;27;20038;-67
2023/01/29 07:40:47;;;;;;;8.50;4.43;;;;;;;;;;5079705;27;20039;-68
2023/01/29 07:43:15;;;;;;;7.10;4.77;;;;;;;;;;5098455;27;20027;-67
2023/01/29 07:45:42;;;;;;;10.03;4.97;;;;;;;;;;5115247;27;20047;-70
2023/01/29 07:48:09;;;;;;;8.30;4.70;;;;;;;;;;5114957;27;20039;-71
2023/01/29 07:50:35;;;;;;;7.70;4.80;;;;;;;;;;5113980;27;20050;-72
2023/01/29 07:53:01;;;;;;;10.43;4.77;;;;;;;;;;5083764;27;20024;-71
2023/01/29 07:55:28;;;;;;;8.33;5.13;;;;;;;;;;5083972;27;20380;-71
2023/01/29 07:57:55;;;;;;;7.50;4.23;;;;;;;;;;5117285;27;20046;-69
2023/01/29 08:00:20;;;;;;;9.07;3.90;;;;;;;;;;5097916;27;20639;-73
2023/01/29 08:02:46;;;;;;;4.63;2.93;;;;;;;;;;5115648;27;20179;-71
2023/01/29 08:05:12;;;;;;;4.90;3.13;;;;;;;;;;5081581;27;20156;-70
2023/01/29 08:07:37;;;;;;;4.23;2.80;;;;;;;;;;5079431;27;20063;-68
2023/01/29 08:10:03;;;;;;;4.57;3.07;;;;;;;;;;5098069;27;20058;-74
2023/01/29 08:12:30;;;;;;;3.67;2.73;;;;;;;;;;5115108;27;20556;-72
2023/01/29 08:14:59;;;;;;;5.97;3.20;;;;;;;;;;5134499;27;20130;-67
2023/01/29 08:17:29;;;;;;;4.60;2.90;;;;;;;;;;5115072;27;20140;-69
2023/01/29 08:19:55;;;;;;;5.50;3.23;;;;;;;;;;5098055;27;20031;-68
2023/01/29 08:22:22;;;;;;;6.57;3.97;;;;;;;;;;5098391;27;20023;-68
2023/01/29 08:24:47;;;;;;;6.47;3.37;;;;;;;;;;5096778;27;20461;-66
2023/01/29 08:27:13;;;;;;;6.97;3.90;;;;;;;;;;5097938;27;20139;-66
2023/01/29 08:29:39;;;;;;;4.50;2.90;;;;;;;;;;5097814;27;20477;-71
2023/01/29 08:32:07;;;;;;;5.17;2.70;;;;;;;;;;5089655;27;20106;-71
2023/01/29 08:34:33;;;;;;;4.83;3.20;;;;;;;;;;5097705;27;20054;-71
2023/01/29 08:36:59;;;;;;;5.70;3.30;;;;;;;;;;5081255;27;20468;-73
2023/01/29 08:39:25;;;;;;;5.13;3.20;;;;;;;;;;5113336;27;20374;-68
2023/01/29 08:41:50;;;;;;;5.67;3.13;;;;;;;;;;5081364;27;20038;-66
2023/01/29 08:44:16;;;;;;;7.77;3.07;;;;;;;;;;5080849;27;20027;-67
2023/01/29 08:46:42;;;;;;;4.93;3.27;;;;;;;;;;5095842;27;20027;-67
2023/01/29 08:49:09;;;;;;;4.80;3.10;;;;;;;;;;5097351;27;20039;-67
2023/01/29 08:51:35;;;;;;;5.07;3.13;;;;;;;;;;5080903;27;20039;-65
2023/01/29 08:54:00;;;;;;;4.20;3.00;;;;;;;;;;5097670;27;20023;-67
2023/01/29 08:56:26;;;;;;;5.33;3.10;;;;;;;;;;5079340;27;20035;-67
2023/01/29 08:58:53;;;;;;;3.73;2.80;;;;;;;;;;5079229;27;20453;-67
2023/01/29 09:01:18;;;;;;;4.67;2.80;;;;;;;;;;5095422;27;20031;-66
2023/01/29 09:03:44;;;;;;;4.50;2.70;;;;;;;;;;5095243;27;20068;-67
2023/01/29 09:06:11;;;;;;;4.43;2.70;;;;;;;;;;5090909;27;20032;-67
2023/01/29 09:08:39;;;;;;;5.77;3.00;;;;;;;;;;5088340;27;20040;-67
2023/01/29 09:11:05;;;;;;;4.50;2.93;;;;;;;;;;5077764;27;20055;-67
2023/01/29 09:13:31;;;;;;;3.83;2.30;;;;;;;;;;5092288;27;20035;-67
2023/01/29 09:16:00;;;;;;;4.77;2.50;;;;;;;;;;5094238;27;20023;-66
2023/01/29 09:18:27;;;;;;;5.10;2.40;;;;;;;;;;5095399;27;20046;-67
2023/01/29 09:20:53;;;;;;;4.13;2.40;;;;;;;;;;5095022;27;20091;-66
2023/01/29 09:23:19;;;;;;;6.73;2.80;;;;;;;;;;5112029;27;20027;-68
2023/01/29 09:25:45;;;;;;;6.57;3.20;;;;;;;;;;5094800;27;20030;-67
2023/01/29 09:28:11;;;;;;;3.83;2.30;;;;;;;;;;5092474;28;20028;-66
2023/01/29 09:30:36;;;;;;;6.27;3.10;;;;;;;;;;5093211;28;20392;-66
2023/01/29 09:33:03;;;;;;;5.60;2.60;;;;;;;;;;5096046;27;20484;-66
2023/01/29 09:35:29;;;;;;;4.00;2.63;;;;;;;;;;5112564;27;20111;-66
2023/01/29 09:37:54;;;;;;;4.03;2.67;;;;;;;;;;5095353;27;20046;-66
2023/01/29 09:40:25;;;;;;;2.87;2.27;;;;;;;;;;5077567;27;20023;-66
2023/01/29 09:43:03;;;;;;;7.50;2.83;;;;;;;;;;5127061;27;20570;-65
2023/01/29 09:45:29;;;;;;;4.73;2.63;;;;;;;;;;5095334;27;20035;-66
2023/01/29 09:47:57;;;;;;;3.37;2.03;;;;;;;;;;5095194;27;20103;-67
2023/01/29 09:50:38;;;;;;;2.83;1.93;;;;;;;;;;5123247;27;20043;-67
2023/01/29 09:53:04;;;;;;;3.27;2.00;;;;;;;;;;5111508;27;20039;-67
2023/01/29 09:55:34;;;;;;;2.87;2.00;;;;;;;;;;5112163;27;20342;-67
2023/01/29 09:58:04;;;;;;;4.17;2.00;;;;;;;;;;5095491;28;20027;-66
2023/01/29 10:00:33;;;;;;;4.40;2.50;;;;;;;;;;5093069;28;20537;-68
2023/01/29 10:03:11;;;;;;;3.27;2.10;;;;;;;;;;5094087;27;20034;-66
2023/01/29 10:05:43;;;;;;;2.90;2.10;;;;;;;;;;5092326;28;20483;-67
2023/01/29 10:08:08;;;;;;;3.77;2.70;;;;;;;;;;5063880;28;20031;-67
2023/01/29 10:10:43;;;;;;;5.57;2.30;;;;;;;;;;5091151;28;20439;-67
2023/01/29 10:13:27;;;;;;;5.47;2.60;;;;;;;;;;5108781;28;20042;-67
2023/01/29 10:15:59;;;;;;;4.63;2.40;;;;;;;;;;5076110;28;20047;-66
2023/01/29 10:18:27;;;;;;;3.87;2.30;;;;;;;;;;5091838;28;20437;-67
2023/01/29 10:20:56;;;;;;;4.30;2.30;;;;;;;;;;5073677;28;20032;-67
2023/01/29 10:23:24;;;;;;;3.23;2.40;;;;;;;;;;5073923;28;20829;-66
2023/01/29 10:25:50;;;;;;;3.90;2.47;;;;;;;;;;5090680;28;20097;-66
2023/01/29 10:28:17;;;;;;;4.17;2.93;;;;;;;;;;5092672;28;20080;-65
2023/01/29 10:30:46;;;;;;;5.50;2.73;;;;;;;;;;5074077;28;20130;-67
2023/01/29 10:33:15;;;;;;;5.10;2.90;;;;;;;;;;5074260;28;20043;-66
2023/01/29 10:35:42;;;;;;;3.73;2.27;;;;;;;;;;5092620;28;20452;-66
2023/01/29 10:38:20;;;;;;;4.03;2.50;;;;;;;;;;5076738;28;20460;-70
2023/01/29 10:40:51;;;;;;;3.90;2.70;;;;;;;;;;5074626;28;20036;-70
2023/01/29 10:43:20;;;;;;;6.47;2.97;;;;;;;;;;5064984;28;20027;-70
2023/01/29 10:46:03;;;;;;;7.90;2.70;;;;;;;;;;5110828;28;20035;-69
2023/01/29 10:48:55;;;;;;;4.50;2.70;;;;;;;;;;5096288;27;20465;-74
2023/01/29 10:51:21;;;;;;;4.30;2.80;;;;;;;;;;5117300;27;20043;-75
2023/01/29 10:53:51;;;;;;;4.47;2.70;;;;;;;;;;5115980;27;20035;-76
2023/01/29 10:56:41;;;;;;;4.25;2.92;;;;;;;;;;5132037;27;20050;-77
2023/01/29 10:59:23;;;;;;;3.77;2.60;;;;;;;;;;5107529;27;20042;-76
2023/01/29 11:01:48;;;;;;;4.18;2.65;;;;;;;;;;5078836;28;20043;-76
2023/01/29 11:04:18;;;;;;;5.43;3.00;;;;;;;;;;5111391;27;20043;-76
2023/01/29 11:06:46;;;;;;;5.57;2.60;;;;;;;;;;5099592;27;20149;-76
2023/01/29 11:09:17;;;;;;;5.13;2.87;;;;;;;;;;5099660;27;20103;-76
2023/01/29 11:12:04;;;;;;;4.37;2.80;;;;;;;;;;5115018;27;20046;-75
2023/01/29 11:14:44;;;;;;;4.37;3.10;;;;;;;;;;5116456;27;20498;-75
2023/01/29 11:17:16;;;;;;;5.37;2.63;;;;;;;;;;5099875;27;20035;-75
2023/01/29 11:19:43;;;;;;;3.93;2.90;;;;;;;;;;5082068;27;20023;-74
2023/01/29 11:22:19;;;;;;;3.80;2.60;;;;;;;;;;5116150;27;20461;-71
2023/01/29 11:24:46;;;;;;;4.63;2.90;;;;;;;;;;5099574;27;20174;-77
2023/01/29 11:27:28;;;;;;;4.03;2.60;;;;;;;;;;5099523;27;20039;-74
2023/01/29 11:29:58;;;;;;;5.33;3.30;;;;;;;;;;5116400;27;20061;-77
2023/01/29 11:32:28;;;;;;;3.30;2.40;;;;;;;;;;5081985;27;20035;-75
2023/01/29 11:35:15;;;;;;;4.70;2.87;;;;;;;;;;5117115;27;20134;-77
2023/01/29 11:37:42;;;;;;;5.90;3.33;;;;;;;;;;5098967;27;20050;-71
2023/01/29 11:40:22;;;;;;;4.43;2.97;;;;;;;;;;5098639;27;20031;-68
2023/01/29 11:42:48;;;;;;;4.63;3.13;;;;;;;;;;5081478;27;20460;-68
2023/01/29 11:45:20;;;;;;;8.43;3.80;;;;;;;;;;5098793;27;20112;-66
2023/01/29 11:47:51;;;;;;;4.77;3.10;;;;;;;;;;5097186;27;20846;-66
2023/01/29 11:50:23;;;;;;;6.10;3.00;;;;;;;;;;5081225;27;20385;-67
2023/01/29 11:52:48;;;;;;;4.20;2.70;;;;;;;;;;5076683;28;20054;-68
2023/01/29 11:55:22;;;;;;;6.33;3.67;;;;;;;;;;5078380;28;20063;-68
2023/01/29 11:58:11;;;;;;;6.43;3.30;;;;;;;;;;5078067;28;20039;-67
2023/01/29 12:00:38;;;;;;;7.60;4.23;;;;;;;;;;5060055;28;20059;-66
2023/01/29 12:03:09;;;;;;;5.33;3.37;;;;;;;;;;5078086;28;20047;-69
2023/01/29 12:05:37;;;;;;;6.80;3.30;;;;;;;;;;5078030;28;20035;-66
2023/01/29 12:08:14;;;;;;;6.30;3.53;;;;;;;;;;5078413;28;20039;-68
2023/01/29 12:10:41;;;;;;;5.83;3.40;;;;;;;;;;5077675;28;20138;-67
2023/01/29 12:13:09;;;;;;;6.17;3.40;;;;;;;;;;5077402;28;20353;-66
2023/01/29 12:15:36;;;;;;;4.57;3.60;;;;;;;;;;5094710;28;20035;-69
2023/01/29 12:18:22;;;;;;;5.57;3.47;;;;;;;;;;5078391;28;20032;-68
2023/01/29 12:21:02;;;;;;;6.13;3.40;;;;;;;;;;5077502;28;20043;-68
2023/01/29 12:23:38;;;;;;;6.70;3.87;;;;;;;;;;5077259;28;20047;-68
2023/01/29 12:26:11;;;;;;;6.53;3.30;;;;;;;;;;5095147;28;20035;-70
2023/01/29 12:28:49;;;;;;;5.90;3.80;;;;;;;;;;5111764;28;20385;-67
2023/01/29 12:31:23;;;;;;;7.30;3.90;;;;;;;;;;5077771;28;20040;-67
2023/01/29 12:34:09;;;;;;;6.73;4.03;;;;;;;;;;5077024;28;20028;-67
2023/01/29 12:36:55;;;;;;;8.50;5.20;;;;;;;;;;5077698;28;20426;-69
2023/01/29 12:39:21;;;;;;;7.60;4.67;;;;;;;;;;5104464;27;20136;-68
2023/01/29 12:41:58;;;;;;;7.63;4.20;;;;;;;;;;5101000;27;20050;-67
2023/01/29 12:44:33;;;;;;;7.70;4.47;;;;;;;;;;5118026;27;20048;-66
2023/01/29 12:47:00;;;;;;;7.67;4.40;;;;;;;;;;5118001;27;20037;-67
2023/01/29 12:49:30;;;;;;;10.67;4.80;;;;;;;;;;5117572;27;20043;-68
2023/01/29 12:52:08;;;;;;;7.23;4.40;;;;;;;;;;5118006;27;20058;-67
2023/01/29 12:54:38;;;;;;;8.07;4.40;;;;;;;;;;5117606;27;20099;-67
2023/01/29 12:57:08;;;;;;;10.07;4.63;;;;;;;;;;5118144;27;20035;-67
2023/01/29 12:59:38;;;;;;;10.73;5.30;;;;;;;;;;5117578;27;20030;-68
2023/01/29 13:02:15;;;;;;;9.03;5.10;;;;;;;;;;5117771;27;20384;-68
2023/01/29 13:04:45;;;;;;;9.77;5.30;;;;;;;;;;5129072;27;20031;-69
2023/01/29 13:07:11;;;;;;;13.40;4.83;;;;;;;;;;5094432;27;20035;-68
2023/01/29 13:09:41;;;;;;;10.63;5.07;;;;;;;;;;5110641;27;20055;-69
2023/01/29 13:12:11;;;;;;;10.07;4.97;;;;;;;;;;5083137;28;20094;-67
2023/01/29 13:14:51;;;;;;;9.48;5.28;;;;;;;;;;5098005;28;20061;-69
2023/01/29 13:17:36;;;;;;;7.50;4.47;;;;;;;;;;5090610;28;20126;-67
2023/01/29 13:20:09;;;;;;;13.47;5.27;;;;;;;;;;5073499;28;20106;-68
2023/01/29 13:22:37;;;;;;;10.70;5.30;;;;;;;;;;5073387;28;20105;-70
2023/01/29 13:25:03;;;;;;;8.03;4.87;;;;;;;;;;5073351;28;20034;-67
2023/01/29 13:27:30;;;;;;;12.10;5.83;;;;;;;;;;5056823;28;20127;-68
2023/01/29 13:29:57;;;;;;;9.73;4.87;;;;;;;;;;5097288;28;20044;-68
2023/01/29 13:32:31;;;;;;;11.27;5.43;;;;;;;;;;5102225;28;20027;-67
2023/01/29 13:35:01;;;;;;;10.70;5.17;;;;;;;;;;5093214;28;20055;-67
2023/01/29 13:37:29;;;;;;;12.03;6.57;;;;;;;;;;5081469;28;20037;-68
2023/01/29 13:39:56;;;;;;;11.40;5.50;;;;;;;;;;5097100;28;20281;-66
2023/01/29 13:42:25;;;;;;;12.90;5.87;;;;;;;;;;5082382;28;20031;-68
2023/01/29 13:44:55;;;;;;;9.40;5.93;;;;;;;;;;5082382;28;20043;-68
2023/01/29 13:47:29;;;;;;;10.53;5.17;;;;;;;;;;5093900;28;20028;-67
2023/01/29 13:50:13;;;;;;;12.20;5.33;;;;;;;;;;5114055;27;20130;-66
2023/01/29 13:52:43;;;;;;;10.87;5.20;;;;;;;;;;5108881;27;20469;-66
2023/01/29 13:55:12;;;;;;;13.07;5.93;;;;;;;;;;5080089;28;20527;-66
2023/01/29 13:57:47;;;;;;;10.00;5.17;;;;;;;;;;5088252;28;20122;-66
2023/01/29 14:00:19;;;;;;;9.73;5.27;;;;;;;;;;5091241;28;20475;-66
2023/01/29 14:03:10;;;;;;;12.20;5.93;;;;;;;;;;5094256;28;20578;-66
2023/01/29 14:05:38;;;;;;;12.90;5.57;;;;;;;;;;5052897;28;20052;-68
2023/01/29 14:08:12;;;;;;;9.60;5.10;;;;;;;;;;5080563;28;20493;-66
2023/01/29 14:10:39;;;;;;;11.73;5.40;;;;;;;;;;5080373;28;20052;-68
2023/01/29 14:13:17;;;;;;;12.10;5.67;;;;;;;;;;5065579;28;20039;-69
2023/01/29 14:15:55;;;;;;;12.53;6.00;;;;;;;;;;5098917;28;20458;-68
2023/01/29 14:18:21;;;;;;;11.73;6.40;;;;;;;;;;5098939;28;20355;-67
2023/01/29 14:20:47;;;;;;;14.13;6.47;;;;;;;;;;5077609;28;20032;-68
2023/01/29 14:23:28;;;;;;;9.63;5.40;;;;;;;;;;5096067;28;20043;-67
2023/01/29 14:25:54;;;;;;;12.77;6.27;;;;;;;;;;5093262;28;20343;-67
2023/01/29 14:28:27;;;;;;;12.93;6.17;;;;;;;;;;5078943;28;21345;-68
2023/01/29 14:30:53;;;;;;;14.87;6.07;;;;;;;;;;5073954;28;20375;-68
2023/01/29 14:33:27;;;;;;;11.60;6.10;;;;;;;;;;5055895;28;20032;-67
2023/01/29 14:35:55;;;;;;;11.20;5.60;;;;;;;;;;5071466;28;20040;-67
2023/01/29 14:38:22;;;;;;;12.07;5.80;;;;;;;;;;5060469;28;20106;-67
2023/01/29 14:40:48;;;;;;;11.87;6.20;;;;;;;;;;5107807;28;20797;-67
2023/01/29 14:43:19;;;;;;;14.13;6.77;;;;;;;;;;5095418;28;20040;-67
2023/01/29 14:45:46;;;;;;;11.20;6.07;;;;;;;;;;5052877;28;20047;-67
2023/01/29 14:48:11;;;;;;;12.60;6.80;;;;;;;;;;5039373;28;20039;-67
2023/01/29 14:50:50;;;;;;;13.27;6.33;;;;;;;;;;5076250;28;20040;-67
2023/01/29 14:53:19;;;;;;;12.27;6.53;;;;;;;;;;5095488;28;20031;-67
2023/01/29 14:55:48;;;;;;;13.13;6.10;;;;;;;;;;5090326;28;20092;-67
2023/01/29 14:58:18;;;;;;;14.27;6.80;;;;;;;;;;5089872;28;20523;-67
2023/01/29 15:00:48;;;;;;;9.30;5.40;;;;;;;;;;5082931;28;20058;-70
2023/01/29 15:03:26;;;;;;;14.00;6.90;;;;;;;;;;5052036;28;20048;-68
2023/01/29 15:05:53;;;;;;;12.93;6.30;;;;;;;;;;5058067;28;20473;-67
2023/01/29 15:08:44;;;;;;;12.53;5.87;;;;;;;;;;5061491;28;20036;-67
2023/01/29 15:11:32;;;;;;;15.37;6.37;;;;;;;;;;5064912;28;20485;-68
2023/01/29 15:13:58;;;;;;;12.87;6.60;;;;;;;;;;5071302;28;20478;-68
2023/01/29 15:16:31;;;;;;;14.03;7.13;;;;;;;;;;5061630;28;20032;-68
2023/01/29 15:19:09;;;;;;;12.30;6.70;;;;;;;;;;5124626;28;20042;-69
2023/01/29 15:21:36;;;;;;;12.23;6.53;;;;;;;;;;5090215;28;20555;-68
2023/01/29 15:24:05;;;;;;;11.90;6.37;;;;;;;;;;5090800;28;20067;-68
2023/01/29 15:26:32;;;;;;;13.87;6.50;;;;;;;;;;5085449;28;20039;-69
2023/01/29 15:28:59;;;;;;;14.80;7.00;;;;;;;;;;5077575;28;20036;-68